Time;durP1;ratioP1;P1;durP2;ratioP2;P2;SDS_P1;SDS_P2;PMS_P1;PMS_P2;Temp;Humidity;BMP_temperature;BMP_pressure;BME280_temperature;BME280_humidity;BME280_pressure;Samples;Min_cycle;Max_cycle;Signal;HPM_P1;HPM_P2
2024/01/01 00:02:24;;;;;;;6.25;3.45;;;;;;;20.85;45.08;99739.06;5011493;28;98205;-78
2024/01/01 00:04:49;;;;;;;7.88;3.55;;;;;;;20.85;44.74;99728.47;5015018;28;111937;-78
2024/01/01 00:07:14;;;;;;;6.47;3.80;;;;;;;20.85;45.03;99734.63;5016015;28;117528;-78
2024/01/01 00:09:40;;;;;;;6.10;3.33;;;;;;;20.85;44.70;99737.28;5021454;27;113703;-78
2024/01/01 00:12:08;;;;;;;6.70;4.25;;;;;;;20.85;44.70;99736.41;5011079;28;97353;-78
2024/01/01 00:14:33;;;;;;;6.75;3.75;;;;;;;20.84;44.97;99735.56;5004801;28;97382;-78
2024/01/01 00:16:59;;;;;;;6.30;3.95;;;;;;;20.84;44.66;99742.66;5012407;28;97759;-79
2024/01/01 00:19:24;;;;;;;7.43;3.60;;;;;;;20.83;44.97;99730.34;5010114;28;115319;-78
2024/01/01 00:21:50;;;;;;;6.28;3.72;;;;;;;20.83;44.98;99736.50;5013034;28;97488;-78
2024/01/01 00:24:16;;;;;;;9.15;3.78;;;;;;;20.82;44.83;99741.84;5009246;28;126676;-78
2024/01/01 00:26:43;;;;;;;6.82;3.78;;;;;;;20.83;44.81;99738.28;5010223;28;96821;-78
2024/01/01 00:29:09;;;;;;;6.70;3.95;;;;;;;20.83;44.93;99733.00;5005902;28;97220;-78
2024/01/01 00:31:36;;;;;;;5.72;3.58;;;;;;;20.82;44.67;99733.91;5011869;28;96730;-79
2024/01/01 00:34:02;;;;;;;7.40;4.03;;;;;;;20.83;44.66;99738.28;5013230;28;96765;-78
2024/01/01 00:36:27;;;;;;;7.95;4.40;;;;;;;20.83;44.66;99748.88;5004787;28;96738;-77
2024/01/01 00:38:53;;;;;;;7.25;4.03;;;;;;;20.82;44.72;99757.75;5013921;28;115071;-78
2024/01/01 00:41:19;;;;;;;7.80;3.95;;;;;;;20.82;44.80;99753.34;5000329;28;100422;-78
2024/01/01 00:43:45;;;;;;;6.95;3.83;;;;;;;20.84;44.90;99747.97;5015256;27;96854;-78
2024/01/01 00:46:10;;;;;;;6.75;4.18;;;;;;;20.82;44.81;99752.47;5014829;28;97360;-78
2024/01/01 00:48:36;;;;;;;5.93;3.85;;;;;;;20.81;44.94;99767.50;5014098;28;96850;-78
2024/01/01 00:51:02;;;;;;;6.45;3.70;;;;;;;20.80;44.63;99764.94;5014629;28;99678;-78
2024/01/01 00:53:27;;;;;;;7.90;3.97;;;;;;;20.80;44.98;99759.63;4998086;28;100666;-77
2024/01/01 00:55:52;;;;;;;7.07;4.05;;;;;;;20.79;44.98;99761.44;5020460;28;96806;-78
2024/01/01 00:58:18;;;;;;;6.65;4.25;;;;;;;20.79;44.71;99768.53;5015054;28;96891;-77
2024/01/01 01:00:43;;;;;;;6.30;3.78;;;;;;;20.78;44.63;99761.50;5021539;28;100013;-77
2024/01/01 01:03:08;;;;;;;7.63;3.83;;;;;;;20.75;45.04;99762.50;4996892;28;98929;-77
2024/01/01 01:05:34;;;;;;;8.50;4.13;;;;;;;20.77;45.05;99759.78;5007362;28;116955;-77
2024/01/01 01:07:59;;;;;;;8.20;3.97;;;;;;;20.73;45.15;99769.69;4995743;28;96941;-77
2024/01/01 01:10:25;;;;;;;5.13;3.60;;;;;;;20.72;44.90;99771.44;5005086;28;100384;-78
2024/01/01 01:12:53;;;;;;;7.57;3.85;;;;;;;20.72;44.98;99767.94;5008473;28;119755;-77
2024/01/01 01:15:19;;;;;;;6.00;3.58;;;;;;;20.71;45.15;99761.78;5006814;28;96780;-77
2024/01/01 01:17:44;;;;;;;8.40;4.22;;;;;;;20.70;45.09;99778.63;5006605;28;97745;-77
2024/01/01 01:20:10;;;;;;;6.95;3.88;;;;;;;20.68;44.91;99772.53;5005329;28;100173;-77
2024/01/01 01:22:36;;;;;;;6.30;3.95;;;;;;;20.70;45.01;99769.81;5005682;28;97305;-77
2024/01/01 01:25:01;;;;;;;6.40;3.78;;;;;;;20.71;45.02;99771.50;4990717;28;97473;-77
2024/01/01 01:27:27;;;;;;;8.77;3.83;;;;;;;20.73;44.86;99772.31;5013098;28;98361;-77
2024/01/01 01:29:52;;;;;;;6.97;3.97;;;;;;;20.73;44.79;99775.81;5012531;28;97922;-77
2024/01/01 01:32:18;;;;;;;6.95;3.88;;;;;;;20.76;44.79;99773.97;5012359;28;123409;-77
2024/01/01 01:34:43;;;;;;;7.53;4.15;;;;;;;20.76;44.92;99777.47;5004295;28;96983;-77
2024/01/01 01:37:08;;;;;;;6.28;3.85;;;;;;;20.75;44.98;99786.38;5007425;28;96985;-77
2024/01/01 01:39:35;;;;;;;6.60;3.88;;;;;;;20.72;44.90;99787.34;5003200;28;96916;-77
2024/01/01 01:42:00;;;;;;;6.57;3.88;;;;;;;20.75;44.59;99783.72;5008216;28;97215;-77
2024/01/01 01:44:26;;;;;;;6.60;3.55;;;;;;;20.73;44.54;99781.13;5006893;28;96704;-77
2024/01/01 01:46:52;;;;;;;6.47;3.30;;;;;;;20.76;44.75;99795.16;5003854;28;97255;-77
2024/01/01 01:49:17;;;;;;;6.70;3.83;;;;;;;20.75;44.62;99791.66;4987983;28;100635;-77
2024/01/01 01:51:47;;;;;;;7.70;3.65;;;;;;;20.73;45.23;99791.72;5006500;28;97482;-77
2024/01/01 01:54:13;;;;;;;6.63;3.90;;;;;;;20.75;44.68;99796.97;4985584;28;96795;-77
2024/01/01 01:56:39;;;;;;;6.40;3.70;;;;;;;20.72;44.88;99808.53;5006869;28;96808;-77
2024/01/01 01:59:05;;;;;;;6.03;3.30;;;;;;;20.73;44.88;99798.81;5007467;28;100009;-77
2024/01/01 02:01:31;;;;;;;7.10;3.95;;;;;;;20.72;44.76;99797.94;5008122;28;98751;-77
2024/01/01 02:03:57;;;;;;;7.57;3.38;;;;;;;20.73;44.50;99790.88;5010396;28;97123;-77
2024/01/01 02:06:23;;;;;;;7.28;3.83;;;;;;;20.72;44.82;99781.19;5006830;28;96707;-76
2024/01/01 02:08:50;;;;;;;6.68;3.65;;;;;;;20.73;44.94;99788.22;4986091;28;99268;-77
2024/01/01 02:11:15;;;;;;;6.32;4.03;;;;;;;20.73;44.63;99782.94;4998127;28;97458;-77
2024/01/01 02:13:41;;;;;;;4.97;3.25;;;;;;;20.73;44.80;99781.13;5005032;28;98803;-77
2024/01/01 02:16:06;;;;;;;7.25;3.28;;;;;;;20.75;44.62;99778.41;5002694;28;96863;-77
2024/01/01 02:18:32;;;;;;;6.03;3.70;;;;;;;20.73;44.92;99782.94;5000912;28;96864;-77
2024/01/01 02:20:57;;;;;;;6.90;3.38;;;;;;;20.73;44.79;99790.88;5003126;28;123377;-77
2024/01/01 02:23:24;;;;;;;5.30;3.17;;;;;;;20.72;44.79;99797.94;5006583;28;97271;-77
2024/01/01 02:25:50;;;;;;;5.70;3.22;;;;;;;20.73;44.63;99799.69;5004015;28;96879;-77
2024/01/01 02:28:16;;;;;;;6.53;3.38;;;;;;;20.72;44.83;99792.66;5002786;28;96763;-77
2024/01/01 02:30:42;;;;;;;5.25;3.17;;;;;;;20.72;44.76;99790.00;4990412;28;99729;-77
2024/01/01 02:33:09;;;;;;;4.88;3.47;;;;;;;20.73;44.82;99797.03;5002269;28;98290;-77
2024/01/01 02:35:38;;;;;;;6.25;3.20;;;;;;;20.73;44.70;99796.19;5001834;28;96914;-77
2024/01/01 02:38:04;;;;;;;7.85;3.53;;;;;;;20.73;44.38;99807.63;5003012;28;98884;-77
2024/01/01 02:40:37;;;;;;;5.28;3.70;;;;;;;20.72;44.55;99810.34;5005831;28;96791;-77
2024/01/01 02:43:03;;;;;;;5.47;3.33;;;;;;;20.72;44.47;99803.25;5006906;28;97169;-77
2024/01/01 02:45:29;;;;;;;5.95;3.13;;;;;;;20.73;44.68;99798.81;5003776;28;96846;-77
2024/01/01 02:47:55;;;;;;;5.97;3.10;;;;;;;20.72;44.68;99800.59;5003370;28;99186;-77
2024/01/01 02:50:21;;;;;;;5.30;3.35;;;;;;;20.73;44.45;99809.44;5001354;28;98862;-77
2024/01/01 02:52:47;;;;;;;5.53;3.10;;;;;;;20.71;44.82;99801.53;4986949;28;97798;-77
2024/01/01 02:55:12;;;;;;;6.38;3.55;;;;;;;20.72;44.77;99797.09;4987298;28;96852;-77
2024/01/01 02:57:38;;;;;;;5.97;3.22;;;;;;;20.71;44.77;99805.97;5010107;28;97322;-77
2024/01/01 03:00:04;;;;;;;6.10;3.38;;;;;;;20.71;44.77;99805.97;5009201;28;97488;-77
2024/01/01 03:02:29;;;;;;;5.68;3.25;;;;;;;20.72;44.54;99805.03;4990370;28;97842;-77
2024/01/01 03:04:55;;;;;;;5.57;3.28;;;;;;;20.72;44.74;99802.41;5008355;28;96850;-77
2024/01/01 03:07:21;;;;;;;6.18;3.22;;;;;;;20.73;44.52;99804.13;4997413;28;99139;-77
2024/01/01 03:09:46;;;;;;;5.80;3.42;;;;;;;20.73;44.72;99809.44;5007365;28;97209;-77
2024/01/01 03:12:11;;;;;;;6.75;3.03;;;;;;;20.71;44.80;99812.13;4993304;28;96941;-77
2024/01/01 03:14:37;;;;;;;5.05;3.15;;;;;;;20.72;44.45;99811.19;5010111;28;108481;-76
2024/01/01 03:17:03;;;;;;;5.90;3.35;;;;;;;20.72;44.46;99810.34;5010222;28;99158;-77
2024/01/01 03:19:28;;;;;;;5.55;3.22;;;;;;;20.72;44.79;99805.03;5008869;28;99581;-77
2024/01/01 03:21:53;;;;;;;5.25;3.15;;;;;;;20.72;44.80;99811.19;5011172;28;96891;-77
2024/01/01 03:24:19;;;;;;;6.20;3.30;;;;;;;20.72;44.59;99800.59;5009313;28;106730;-77
2024/01/01 03:26:44;;;;;;;5.10;3.20;;;;;;;20.72;44.52;99803.25;5009219;28;121295;-77
2024/01/01 03:29:10;;;;;;;5.80;2.95;;;;;;;20.72;44.58;99805.03;4992228;28;98056;-77
2024/01/01 03:31:35;;;;;;;4.90;2.90;;;;;;;20.72;44.33;99805.03;5007075;28;99449;-77
2024/01/01 03:34:00;;;;;;;5.43;3.10;;;;;;;20.72;44.35;99810.34;5007717;28;97892;-77
2024/01/01 03:36:26;;;;;;;5.47;2.90;;;;;;;20.72;44.34;99808.53;5005185;28;117670;-77
2024/01/01 03:38:51;;;;;;;5.55;3.05;;;;;;;20.73;44.42;99815.56;5006349;28;127321;-77
2024/01/01 03:41:16;;;;;;;6.68;2.90;;;;;;;20.71;44.48;99820.09;5007298;28;96900;-77
2024/01/01 03:43:42;;;;;;;4.40;2.53;;;;;;;20.73;44.40;99833.28;4998845;28;117093;-77
2024/01/01 03:46:07;;;;;;;6.57;3.00;;;;;;;20.72;44.84;99816.50;5005732;28;119918;-77
2024/01/01 03:48:32;;;;;;;5.60;2.65;;;;;;;20.72;44.82;99810.34;5006362;28;124805;-77
2024/01/01 03:50:58;;;;;;;5.45;2.75;;;;;;;20.71;44.73;99814.78;5012499;28;96574;-77
2024/01/01 03:53:23;;;;;;;4.32;2.70;;;;;;;20.72;44.54;99818.28;5006065;28;115367;-77
2024/01/01 03:55:48;;;;;;;5.07;2.70;;;;;;;20.72;44.33;99815.66;5002694;28;119024;-77
2024/01/01 03:58:14;;;;;;;5.32;2.72;;;;;;;20.71;44.74;99814.78;5015929;28;99322;-77
2024/01/01 04:00:39;;;;;;;5.63;2.75;;;;;;;20.72;44.37;99813.00;5000824;28;115099;-77
2024/01/01 04:03:04;;;;;;;4.45;2.63;;;;;;;20.71;44.63;99817.44;5007340;28;115843;-77
2024/01/01 04:05:31;;;;;;;4.72;2.50;;;;;;;20.71;44.53;99817.44;4990938;28;99155;-77
2024/01/01 04:07:56;;;;;;;5.22;2.90;;;;;;;20.72;44.36;99819.16;5002509;28;103226;-77
2024/01/01 04:10:22;;;;;;;6.07;2.95;;;;;;;20.72;44.50;99818.28;5008815;28;97380;-77
2024/01/01 04:12:47;;;;;;;4.75;2.42;;;;;;;20.73;44.33;99827.97;5004032;28;96890;-77
2024/01/01 04:15:12;;;;;;;4.85;2.72;;;;;;;20.72;44.29;99813.84;5000730;28;96759;-77
2024/01/01 04:17:38;;;;;;;5.95;2.67;;;;;;;20.72;44.56;99818.28;5002587;28;123031;-77
2024/01/01 04:20:10;;;;;;;5.10;2.60;;;;;;;20.73;44.55;99817.38;5008331;28;96866;-77
2024/01/01 04:22:36;;;;;;;4.13;2.42;;;;;;;20.73;44.56;99820.88;5007224;28;96899;-77
2024/01/01 04:25:02;;;;;;;4.25;2.30;;;;;;;20.73;44.38;99820.88;5008401;28;98784;-77
2024/01/01 04:27:27;;;;;;;4.13;2.55;;;;;;;20.73;44.41;99818.22;5005030;28;97172;-77
2024/01/01 04:29:53;;;;;;;5.20;2.58;;;;;;;20.72;44.30;99813.84;5012711;28;96762;-77
2024/01/01 04:32:20;;;;;;;4.25;2.30;;;;;;;20.71;44.43;99812.13;5022223;28;97028;-77
2024/01/01 04:34:45;;;;;;;5.35;2.65;;;;;;;20.72;44.49;99818.28;5005273;28;97388;-77
2024/01/01 04:37:11;;;;;;;4.32;2.58;;;;;;;20.72;44.39;99824.44;4984172;28;98002;-77
2024/01/01 04:39:36;;;;;;;4.70;2.45;;;;;;;20.72;44.39;99828.88;5005941;28;116371;-77
2024/01/01 04:42:03;;;;;;;5.00;2.72;;;;;;;20.72;44.44;99813.00;5005794;28;97121;-77
2024/01/01 04:44:29;;;;;;;4.97;2.25;;;;;;;20.72;44.54;99816.50;5016534;28;96946;-77
2024/01/01 04:46:54;;;;;;;6.82;2.53;;;;;;;20.72;44.55;99824.44;5005777;28;97868;-77
2024/01/01 04:49:19;;;;;;;5.30;2.25;;;;;;;20.73;44.54;99820.03;4995287;28;98789;-77
2024/01/01 04:51:45;;;;;;;4.25;2.28;;;;;;;20.72;44.33;99824.44;5008450;28;96891;-77
2024/01/01 04:54:10;;;;;;;4.38;2.40;;;;;;;20.72;44.27;99818.28;5000588;28;113011;-77
2024/01/01 04:56:35;;;;;;;4.18;2.35;;;;;;;20.71;44.48;99821.84;5010107;28;97390;-77
2024/01/01 04:59:03;;;;;;;3.75;2.20;;;;;;;20.71;44.30;99827.16;5006931;28;96897;-77
2024/01/01 05:01:28;;;;;;;3.92;2.10;;;;;;;20.72;44.33;99831.53;5008139;28;96888;-77
2024/01/01 05:03:53;;;;;;;5.55;2.75;;;;;;;20.71;44.24;99821.84;5008351;28;98023;-77
2024/01/01 05:06:19;;;;;;;4.85;2.30;;;;;;;20.71;44.28;99820.09;4984958;28;110929;-77
2024/01/01 05:08:44;;;;;;;4.32;2.17;;;;;;;20.72;44.33;99832.38;5010037;28;96911;-77
2024/01/01 05:11:10;;;;;;;4.32;2.20;;;;;;;20.70;44.74;99839.56;5009469;28;116643;-77
2024/01/01 05:13:37;;;;;;;4.68;2.42;;;;;;;20.71;44.30;99838.63;5006208;28;98089;-77
2024/01/01 05:16:03;;;;;;;4.30;2.22;;;;;;;20.71;44.62;99835.09;5003630;28;97110;-77
2024/01/01 05:18:28;;;;;;;4.25;2.15;;;;;;;20.70;44.27;99836.91;5005841;28;96715;-77
2024/01/01 05:20:53;;;;;;;4.72;2.22;;;;;;;20.70;44.61;99844.84;5010213;28;96794;-77
2024/01/01 05:23:19;;;;;;;4.85;2.17;;;;;;;20.70;44.43;99844.00;5001484;27;127231;-77
2024/01/01 05:25:44;;;;;;;3.55;2.33;;;;;;;20.70;44.36;99842.19;5008577;27;97237;-77
2024/01/01 05:28:10;;;;;;;4.32;1.83;;;;;;;20.70;44.50;99851.94;4986786;28;117256;-77
2024/01/01 05:30:35;;;;;;;4.10;2.08;;;;;;;20.69;44.56;99844.91;5016206;28;97022;-77
2024/01/01 05:33:00;;;;;;;4.00;1.90;;;;;;;20.70;44.25;99844.84;5009592;28;97854;-77
2024/01/01 05:35:26;;;;;;;4.43;2.10;;;;;;;20.70;44.30;99852.81;5007993;28;97216;-77
2024/01/01 05:37:51;;;;;;;3.90;1.98;;;;;;;20.70;44.64;99859.91;5022949;28;97238;-77
2024/01/01 05:40:17;;;;;;;3.30;1.70;;;;;;;20.71;44.42;99866.91;4991873;28;96809;-77
2024/01/01 05:42:42;;;;;;;4.00;1.85;;;;;;;20.71;44.23;99867.78;5005330;28;105422;-77
2024/01/01 05:45:08;;;;;;;3.17;2.00;;;;;;;20.71;44.31;99870.44;5004082;28;125186;-77
2024/01/01 05:47:33;;;;;;;5.05;2.13;;;;;;;20.69;44.34;99868.78;4987923;28;97200;-77
2024/01/01 05:49:58;;;;;;;3.38;1.80;;;;;;;20.71;44.44;99877.50;5005126;28;97052;-76
2024/01/01 05:52:24;;;;;;;3.90;1.85;;;;;;;20.71;44.02;99877.50;4998864;27;98810;-77
2024/01/01 05:54:49;;;;;;;3.28;1.75;;;;;;;20.70;44.22;99879.31;5003151;28;97903;-77
2024/01/01 05:57:14;;;;;;;3.85;1.80;;;;;;;20.70;44.24;99881.09;5003696;28;98978;-77
2024/01/01 05:59:40;;;;;;;3.67;1.90;;;;;;;20.70;44.09;99883.75;5001382;28;96792;-77
2024/01/01 06:02:05;;;;;;;3.40;1.67;;;;;;;20.70;44.27;99889.06;5004846;28;96914;-77
2024/01/01 06:04:31;;;;;;;4.82;1.80;;;;;;;20.69;44.37;99888.16;4998245;28;126647;-77
2024/01/01 06:06:56;;;;;;;4.05;1.80;;;;;;;20.69;44.23;99900.56;5002730;28;108890;-77
2024/01/01 06:09:22;;;;;;;3.05;1.73;;;;;;;20.69;44.45;99887.31;5003020;28;96788;-77
2024/01/01 06:11:48;;;;;;;3.70;1.90;;;;;;;20.70;44.14;99897.00;5000933;28;97906;-77
2024/01/01 06:14:14;;;;;;;4.20;1.70;;;;;;;20.69;44.23;99900.56;5004047;28;97168;-77
2024/01/01 06:16:40;;;;;;;4.47;1.80;;;;;;;20.68;44.28;99909.47;5004294;28;98057;-77
2024/01/01 06:19:07;;;;;;;3.65;1.92;;;;;;;20.68;44.15;99905.00;4991071;28;96774;-77
2024/01/01 06:21:32;;;;;;;4.13;1.52;;;;;;;20.69;44.12;99924.41;5008925;28;97865;-77
2024/01/01 06:23:57;;;;;;;3.47;1.83;;;;;;;20.69;44.09;99921.75;4993237;28;99637;-77
2024/01/01 06:26:23;;;;;;;2.80;1.42;;;;;;;20.69;44.31;99922.63;5008194;28;106560;-77
2024/01/01 06:28:48;;;;;;;3.75;1.80;;;;;;;20.69;44.28;99917.31;5004638;28;116803;-77
2024/01/01 06:31:13;;;;;;;3.78;1.65;;;;;;;20.71;44.10;99925.19;4990918;28;100209;-77
2024/01/01 06:33:39;;;;;;;4.47;1.88;;;;;;;20.69;44.37;99935.88;5003078;28;115865;-77
2024/01/01 06:36:04;;;;;;;5.35;1.65;;;;;;;20.70;44.25;99945.53;5009062;28;97421;-77
2024/01/01 06:38:30;;;;;;;3.42;1.70;;;;;;;20.70;44.22;99950.00;5007872;28;97762;-77
2024/01/01 06:40:55;;;;;;;3.58;1.73;;;;;;;20.69;44.21;99953.56;5008131;28;125579;-77
2024/01/01 06:43:20;;;;;;;2.72;1.50;;;;;;;20.69;44.10;99959.72;5006441;28;108706;-77
2024/01/01 06:45:46;;;;;;;3.35;1.65;;;;;;;20.69;44.37;99958.84;5004132;28;96799;-77
2024/01/01 06:48:11;;;;;;;3.88;1.50;;;;;;;20.69;44.22;99956.22;5007979;28;116403;-77
2024/01/01 06:50:37;;;;;;;3.50;1.77;;;;;;;20.69;43.90;99969.47;5014214;28;116662;-77
2024/01/01 06:53:02;;;;;;;3.08;1.33;;;;;;;20.69;44.23;99978.25;5014612;28;97059;-77
2024/01/01 06:55:29;;;;;;;4.45;1.70;;;;;;;20.68;44.22;99984.50;5014562;28;98036;-77
2024/01/01 06:57:54;;;;;;;2.97;1.38;;;;;;;20.69;44.22;99977.41;5012345;28;96802;-77
2024/01/01 07:00:20;;;;;;;3.17;1.50;;;;;;;20.69;44.32;99982.69;5013827;28;97099;-77
2024/01/01 07:02:45;;;;;;;3.20;1.70;;;;;;;20.69;44.17;99975.59;4991751;28;98148;-77
2024/01/01 07:05:11;;;;;;;3.65;1.48;;;;;;;20.68;44.34;99979.19;5010667;28;99037;-77
2024/01/01 07:07:36;;;;;;;3.10;1.50;;;;;;;20.67;44.37;99982.78;5006803;28;97945;-77
2024/01/01 07:10:02;;;;;;;3.35;1.30;;;;;;;20.69;44.17;99990.66;5000996;28;125719;-77
2024/01/01 07:12:28;;;;;;;3.10;1.20;;;;;;;20.68;44.06;99999.56;5003832;28;97314;-77
2024/01/01 07:14:56;;;;;;;3.30;1.58;;;;;;;20.67;44.37;100005.75;5002352;28;115345;-77
2024/01/01 07:17:22;;;;;;;3.75;1.42;;;;;;;20.68;44.37;100010.16;5020004;27;97191;-77
2024/01/01 07:19:47;;;;;;;2.88;1.55;;;;;;;20.67;44.03;100011.91;5005409;28;127393;-77
2024/01/01 07:22:13;;;;;;;3.17;1.33;;;;;;;20.67;44.21;100022.50;5008016;28;97197;-77
2024/01/01 07:24:39;;;;;;;4.07;1.55;;;;;;;20.67;43.92;100013.72;5002436;28;98964;-77
2024/01/01 07:27:05;;;;;;;3.03;1.40;;;;;;;20.67;44.21;100022.50;5003940;28;96720;-77
2024/01/01 07:29:30;;;;;;;2.63;1.30;;;;;;;20.66;43.93;100026.09;5006731;28;97524;-76
2024/01/01 07:31:56;;;;;;;2.67;1.48;;;;;;;20.65;44.14;100023.53;5003665;28;107236;-77
2024/01/01 07:34:21;;;;;;;2.30;1.40;;;;;;;20.65;44.04;100027.03;5001493;28;96699;-77
2024/01/01 07:36:48;;;;;;;2.72;1.23;;;;;;;20.64;44.25;100025.31;5005513;28;97039;-77
2024/01/01 07:39:19;;;;;;;2.55;1.20;;;;;;;20.65;44.31;100037.63;5009327;28;96958;-77
2024/01/01 07:41:45;;;;;;;2.75;1.30;;;;;;;20.65;44.38;100034.97;4993774;28;97393;-77
2024/01/01 07:44:11;;;;;;;3.60;1.23;;;;;;;20.66;44.22;100043.78;5007393;28;97271;-77
2024/01/01 07:46:37;;;;;;;2.35;1.35;;;;;;;20.65;44.40;100042.91;5003809;28;97921;-77
2024/01/01 07:49:05;;;;;;;3.13;1.20;;;;;;;20.66;44.24;100049.06;4994111;28;130226;-76
2024/01/01 07:51:31;;;;;;;2.70;1.30;;;;;;;20.65;44.01;100050.88;5021198;28;97880;-77
2024/01/01 07:53:56;;;;;;;2.53;1.10;;;;;;;20.67;43.93;100058.75;5010479;28;96752;-77
2024/01/01 07:56:22;;;;;;;3.08;1.10;;;;;;;20.66;43.98;100060.56;5012017;28;97379;-77
2024/01/01 07:58:47;;;;;;;2.58;1.25;;;;;;;20.65;43.97;100068.56;5006140;28;119106;-77
2024/01/01 08:01:16;;;;;;;3.25;1.30;;;;;;;20.66;44.09;100076.44;5009614;28;125949;-77
2024/01/01 08:03:41;;;;;;;;;;;;;;;20.62;44.01;100069.53;5009447;28;96761;-77
2024/01/01 08:06:07;;;;;;;2.45;1.35;;;;;;;20.66;44.09;100072.91;4992940;28;97380;-77
2024/01/01 08:08:32;;;;;;;2.15;1.00;;;;;;;20.65;44.26;100072.06;5007869;28;98156;-77
2024/01/01 08:10:57;;;;;;;2.45;1.30;;;;;;;20.64;44.33;100078.31;5006072;28;96915;-76
2024/01/01 08:13:23;;;;;;;3.65;1.20;;;;;;;20.65;44.04;100071.22;5009004;28;96722;-77
2024/01/01 08:15:48;;;;;;;2.53;0.95;;;;;;;20.66;43.89;100081.75;5008511;28;116632;-77
2024/01/01 08:18:13;;;;;;;2.15;1.30;;;;;;;20.64;44.20;100078.31;5011080;28;97444;-77
2024/01/01 08:20:39;;;;;;;2.40;1.25;;;;;;;20.65;43.84;100087.97;5011513;28;97532;-77
2024/01/01 08:23:04;;;;;;;3.47;1.27;;;;;;;20.65;44.20;100084.47;5010685;28;117055;-77
2024/01/01 08:25:29;;;;;;;2.38;1.10;;;;;;;20.64;44.34;100096.84;5007444;28;96921;-77
2024/01/01 08:27:55;;;;;;;3.60;1.33;;;;;;;20.65;44.03;100101.22;5006070;28;122992;-77
2024/01/01 08:30:20;;;;;;;2.10;1.10;;;;;;;20.65;44.34;100103.00;5008633;28;97300;-77
2024/01/01 08:32:45;;;;;;;3.05;1.30;;;;;;;20.66;44.19;100110.00;5010997;28;111096;-77
2024/01/01 08:35:11;;;;;;;3.35;1.10;;;;;;;20.65;44.05;100124.19;5010402;28;116045;-77
2024/01/01 08:37:36;;;;;;;2.40;1.00;;;;;;;20.66;44.02;100121.50;5013835;28;97888;-76
2024/01/01 08:40:02;;;;;;;2.85;1.05;;;;;;;20.65;44.10;100122.41;5008527;28;98079;-77
2024/01/01 08:42:27;;;;;;;3.63;1.25;;;;;;;20.65;44.11;100125.06;5014551;28;97155;-77
2024/01/01 08:44:53;;;;;;;3.72;1.13;;;;;;;20.65;43.71;100138.31;5009976;28;108155;-77
2024/01/01 08:47:19;;;;;;;2.50;1.27;;;;;;;20.65;43.80;100126.84;4990863;28;97809;-77
2024/01/01 08:49:44;;;;;;;3.17;1.20;;;;;;;20.66;43.77;100132.09;5012651;28;126237;-77
2024/01/01 08:52:09;;;;;;;2.95;1.27;;;;;;;20.67;43.76;100138.25;5013560;28;116606;-77
2024/01/01 08:54:35;;;;;;;2.10;0.93;;;;;;;20.68;44.17;100140.00;4992755;28;96909;-77
2024/01/01 08:57:00;;;;;;;2.88;0.77;;;;;;;20.67;44.10;100146.19;4992797;28;125111;-77
2024/01/01 08:59:25;;;;;;;2.90;1.00;;;;;;;20.66;44.04;100132.09;5006547;28;98256;-77
2024/01/01 09:01:51;;;;;;;2.97;1.50;;;;;;;20.66;44.05;100145.34;5009281;28;99549;-77
2024/01/01 09:04:17;;;;;;;3.13;1.13;;;;;;;20.67;43.99;100143.53;5008803;28;107030;-77
2024/01/01 09:06:43;;;;;;;1.70;0.82;;;;;;;20.66;44.17;100141.81;5018100;27;97520;-77
2024/01/01 09:09:10;;;;;;;2.65;1.02;;;;;;;20.65;43.83;100156.84;5014225;28;100037;-77
2024/01/01 09:11:36;;;;;;;2.33;1.05;;;;;;;20.65;44.16;100156.84;5013220;28;96827;-77
2024/01/01 09:14:01;;;;;;;2.30;1.15;;;;;;;20.66;44.25;100153.28;5007480;28;97028;-77
2024/01/01 09:16:29;;;;;;;2.70;1.17;;;;;;;20.66;43.86;100161.25;5010733;27;97718;-77
2024/01/01 09:18:56;;;;;;;1.90;1.13;;;;;;;20.67;43.83;100168.25;5014724;28;97313;-77
2024/01/01 09:21:24;;;;;;;2.38;1.10;;;;;;;20.67;43.98;100164.75;5009920;28;96805;-77
2024/01/01 09:23:49;;;;;;;2.80;1.23;;;;;;;20.66;44.19;100165.66;5013368;28;97194;-77
2024/01/01 09:26:15;;;;;;;2.72;1.00;;;;;;;20.65;43.75;100172.75;5013517;28;97739;-77
2024/01/01 09:28:40;;;;;;;2.45;1.10;;;;;;;20.64;44.04;100179.00;5013743;28;96687;-77
2024/01/01 09:31:05;;;;;;;3.58;1.10;;;;;;;20.65;43.89;100179.84;5015825;27;96767;-77
2024/01/01 09:33:31;;;;;;;2.42;1.40;;;;;;;20.64;44.07;100189.59;5012555;28;116232;-77
2024/01/01 09:35:56;;;;;;;1.77;0.70;;;;;;;20.63;44.11;100198.44;5012394;28;97717;-77
2024/01/01 09:38:21;;;;;;;2.35;0.95;;;;;;;20.65;43.91;100198.41;4995571;28;97861;-77
2024/01/01 09:40:47;;;;;;;2.20;0.93;;;;;;;20.65;44.06;100206.34;4995655;28;107937;-77
2024/01/01 09:43:16;;;;;;;2.17;1.05;;;;;;;20.65;44.04;100201.91;5013541;28;96838;-77
2024/01/01 09:45:42;;;;;;;2.50;0.85;;;;;;;20.67;43.63;100208.00;5011512;28;96766;-77
2024/01/01 09:48:08;;;;;;;2.78;0.70;;;;;;;20.66;43.71;100219.53;5017961;28;97782;-77
2024/01/01 09:50:34;;;;;;;2.47;0.95;;;;;;;20.67;44.02;100218.59;5022503;28;98364;-77
2024/01/01 09:52:59;;;;;;;2.47;0.90;;;;;;;20.66;44.07;100219.53;5016542;28;97307;-77
2024/01/01 09:55:25;;;;;;;3.65;1.20;;;;;;;20.64;43.93;100224.03;4997145;28;97804;-77
2024/01/01 09:57:50;;;;;;;2.28;1.15;;;;;;;20.65;43.71;100223.09;5010679;28;97236;-77
2024/01/01 10:00:20;;;;;;;2.55;1.08;;;;;;;20.63;44.02;100209.06;5007875;27;98256;-77
2024/01/01 10:02:45;;;;;;;3.03;0.93;;;;;;;20.64;43.83;100223.16;5004833;28;97896;-77
2024/01/01 10:05:15;;;;;;;2.72;1.00;;;;;;;20.65;44.17;100227.53;5007572;28;96998;-77
2024/01/01 10:07:41;;;;;;;2.90;0.98;;;;;;;20.64;43.92;100231.09;4999906;28;99581;-77
2024/01/01 10:10:07;;;;;;;2.28;0.70;;;;;;;20.64;44.12;100242.59;5014501;28;96818;-77
2024/01/01 10:12:33;;;;;;;2.60;0.93;;;;;;;20.65;43.67;100239.00;5020210;28;96802;-77
2024/01/01 10:14:59;;;;;;;2.72;0.90;;;;;;;20.64;44.18;100237.28;5020231;27;97551;-77
2024/01/01 10:17:24;;;;;;;2.30;1.02;;;;;;;20.65;43.84;100233.69;5020431;28;96816;-77
2024/01/01 10:20:01;;;;;;;1.95;0.85;;;;;;;20.65;44.25;100243.44;4997085;28;96892;-77
2024/01/01 10:22:30;;;;;;;2.28;0.82;;;;;;;20.65;43.75;100252.25;5016482;28;96977;-77
2024/01/01 10:25:16;;;;;;;2.35;0.82;;;;;;;20.64;44.19;100242.59;4986403;28;99196;-77
2024/01/01 10:27:43;;;;;;;2.40;1.08;;;;;;;20.66;44.12;100255.75;5001816;27;97125;-77
2024/01/01 10:30:09;;;;;;;2.38;0.90;;;;;;;20.66;44.03;100250.44;4992433;28;96747;-77
2024/01/01 10:32:35;;;;;;;2.22;0.70;;;;;;;20.66;43.77;100259.28;5006078;28;96950;-77
2024/01/01 10:35:02;;;;;;;2.20;1.08;;;;;;;20.67;44.04;100258.34;5014088;28;97100;-77
2024/01/01 10:37:30;;;;;;;2.03;0.82;;;;;;;20.66;43.80;100261.94;5013786;28;97761;-77
2024/01/01 10:40:04;;;;;;;2.65;1.10;;;;;;;20.66;43.95;100261.94;5002687;28;96733;-77
2024/01/01 10:42:33;;;;;;;2.00;0.82;;;;;;;20.65;44.08;100257.53;5000878;28;96804;-77
2024/01/01 10:44:59;;;;;;;2.15;1.02;;;;;;;20.67;44.10;100268.09;5011100;28;97411;-78
2024/01/01 10:47:27;;;;;;;3.50;1.23;;;;;;;20.66;44.09;100269.88;5017223;28;98336;-79
2024/01/01 10:50:09;;;;;;;3.13;0.95;;;;;;;20.66;44.00;100284.91;5026407;28;96830;-79
2024/01/01 10:52:56;;;;;;;1.85;0.82;;;;;;;20.63;44.08;100288.53;4985721;28;96993;-79
2024/01/01 10:55:40;;;;;;;2.28;0.73;;;;;;;20.64;43.84;100282.34;5011528;28;96646;-79
2024/01/01 10:58:21;;;;;;;2.22;0.70;;;;;;;20.64;44.00;100289.41;5014292;28;98764;-79
2024/01/01 11:01:02;;;;;;;2.00;0.70;;;;;;;20.66;44.30;100277.84;5026655;28;96839;-79
2024/01/01 11:03:30;;;;;;;2.92;0.80;;;;;;;20.68;43.91;100289.22;5016523;28;96872;-79
2024/01/01 11:05:56;;;;;;;1.52;0.65;;;;;;;20.67;43.64;100286.63;5015200;28;98604;-77
2024/01/01 11:08:28;;;;;;;2.47;0.95;;;;;;;20.66;43.98;100293.72;5007721;28;98228;-77
2024/01/01 11:10:55;;;;;;;2.70;1.20;;;;;;;20.68;43.90;100285.72;4999794;28;97133;-77
2024/01/01 11:13:26;;;;;;;1.70;0.68;;;;;;;20.66;44.03;100287.53;5015849;28;96862;-77
2024/01/01 11:15:59;;;;;;;3.20;0.80;;;;;;;20.66;44.06;100285.78;5017777;27;108906;-77
2024/01/01 11:18:31;;;;;;;2.45;0.80;;;;;;;20.66;43.95;100288.44;5003184;28;99424;-77
2024/01/01 11:20:57;;;;;;;1.73;0.90;;;;;;;20.67;44.00;100274.25;5012238;28;96924;-77
2024/01/01 11:23:45;;;;;;;1.65;0.70;;;;;;;20.64;43.85;100295.59;5016734;27;97250;-77
2024/01/01 11:26:23;;;;;;;1.73;0.70;;;;;;;20.64;44.14;100300.88;5006847;28;97671;-77